Accueil
METAR-TAF:

METAR-TAF

Aéroports :

Aéroport d'Alert

Alert, Nunavut, Canada

latitude: 82-31N, longitude: 062-17W, altitude: 31 m

Observation

Le bulletin a été fait il y a 16 heures et 45 minutes, à 20:00 UTC
Vent 8 kt de nord/nord-est, variant entre nord et nord-est
Température -30°C
Humidité 68%
Pression 1023 hPa
Visibilité: 24.1 km
Ciel clair

METAR: CYLT 272000Z 02008KT 350V050 15SM SKC M30/M34 A3022 RMK LAST OBS/NEXT 281400 UTC SLP239

Heure: 08:45 (12:45 UTC)

Prévision

Le bulletin a été fait il y a 19 heures et 15 minutes, à 17:30 UTC
Prévision valable du 27 à 18 UTC au 28 à 06 UTC
Vent 12 kt de est/nord-est
Visibilité: 10 km
Ciel clair
Evoluant progressivement
du 27 à 18 UTC au 27 à 20 UTC
Vent 10 kt de ouest
Evoluant progressivement
du 27 à 22 UTC au 27 à 24 UTC
Vent 3 kt de direction variable

TAF: CYLT 271730Z 2718/2806 06012KT P6SM SKC BECMG 2718/2720 28010KT BECMG 2722/2724 VRB03KT RMK NXT FCST BY 280000Z

Observations et prévisions météorologiques de plus de 4000 aéroports (messages METAR et TAF).

Les stations disponibles sont représentées par des disques jaunes et rouges sur la carte.

Passer la souris dessus pour voir le nom de la station.

Cliquer dessus pour voir les observations et prévisions météorologiques.

Pour changer de carte: cliquez sur les boutons verts avec une croix noire pour zoomer, sur le bouton vert avec un tiret pour effectuer un zoom arrière, ou sur les flèches vertes pour les cartes adjacentes.


METAR-TAF: